createdAt,value
2018-11-29T00:00:46.354Z,44.90
2018-11-29T00:03:15.629Z,38.28
2018-11-29T00:05:44.966Z,47.65
2018-11-29T00:08:14.737Z,48.58
2018-11-29T00:10:44.108Z,49.73
2018-11-29T00:13:13.620Z,41.42
2018-11-29T00:15:42.998Z,46.33
2018-11-29T00:18:12.601Z,44.67
2018-11-29T00:20:42.071Z,49.55
2018-11-29T00:23:11.594Z,43.55
2018-11-29T00:25:40.904Z,46.88
2018-11-29T00:28:10.169Z,43.38
2018-11-29T00:30:39.978Z,46.95
2018-11-29T00:33:09.375Z,58.20
2018-11-29T00:35:38.816Z,55.25
2018-11-29T00:38:09.199Z,51.37
2018-11-29T00:40:38.963Z,41.73
2018-11-29T00:43:08.628Z,55.03
2018-11-29T00:45:38.025Z,50.88
2018-11-29T00:48:07.848Z,45.95
2018-11-29T00:50:37.317Z,55.50
2018-11-29T00:53:07.368Z,54.73
2018-11-29T00:55:37.096Z,48.15
2018-11-29T00:58:07.200Z,45.78
2018-11-29T01:00:37.102Z,46.28
2018-11-29T01:03:07.149Z,48.85
2018-11-29T01:05:36.896Z,50.98
2018-11-29T01:08:06.482Z,47.50
2018-11-29T01:10:35.864Z,40.63
2018-11-29T01:13:05.497Z,59.55
2018-11-29T01:15:34.950Z,50.30
2018-11-29T01:18:04.451Z,51.42
2018-11-29T01:20:33.898Z,45.35
2018-11-29T01:23:03.439Z,45.10
2018-11-29T01:25:32.797Z,55.17
2018-11-29T01:28:02.247Z,42.75
2018-11-29T01:30:45.957Z,54.88
2018-11-29T01:33:15.365Z,48.15
2018-11-29T01:35:44.897Z,48.15
2018-11-29T01:38:14.173Z,42.05
2018-11-29T01:40:43.797Z,49.30
2018-11-29T01:43:13.043Z,50.33
2018-11-29T01:45:42.356Z,49.83
2018-11-29T01:48:11.613Z,50.52
2018-11-29T01:50:40.873Z,47.03
2018-11-29T01:53:10.376Z,46.65
2018-11-29T01:55:39.628Z,46.33
2018-11-29T01:58:08.886Z,44.93
2018-11-29T02:00:38.169Z,46.25
2018-11-29T02:03:07.933Z,49.10
2018-11-29T02:05:37.441Z,41.98
2018-11-29T02:08:06.738Z,45.65
2018-11-29T02:10:41.391Z,43.90
2018-11-29T02:13:11.117Z,50.52
2018-11-29T02:15:40.409Z,45.35
2018-11-29T02:18:09.718Z,48.85
2018-11-29T02:20:39.149Z,53.92
2018-11-29T02:23:08.666Z,42.90
2018-11-29T02:25:38.292Z,43.17
2018-11-29T02:28:07.830Z,49.85
2018-11-29T02:30:37.342Z,46.60
2018-11-29T02:33:06.951Z,43.55
2018-11-29T02:35:36.780Z,45.03
2018-11-29T02:38:06.311Z,44.55
2018-11-29T02:40:35.754Z,47.48
2018-11-29T02:43:05.701Z,53.13
2018-11-29T02:45:35.511Z,52.00
2018-11-29T02:48:05.369Z,47.95
2018-11-29T02:50:34.995Z,48.13
2018-11-29T02:53:04.539Z,47.08
2018-11-29T02:55:34.038Z,47.70
2018-11-29T02:58:05.035Z,43.80
2018-11-29T03:00:34.739Z,52.90
2018-11-29T03:03:04.332Z,49.05
2018-11-29T03:05:33.927Z,47.45
2018-11-29T03:08:03.319Z,50.30
2018-11-29T03:10:33.035Z,54.38
2018-11-29T03:13:02.691Z,46.37
2018-11-29T03:15:32.461Z,49.38
2018-11-29T03:18:01.940Z,45.95
2018-11-29T03:20:31.729Z,51.98
2018-11-29T03:23:01.337Z,48.02
2018-11-29T03:25:30.838Z,51.90
2018-11-29T03:28:00.443Z,45.15
2018-11-29T03:30:29.976Z,51.02
2018-11-29T03:32:59.655Z,48.17
2018-11-29T03:35:29.026Z,48.68
2018-11-29T03:37:58.468Z,50.60
2018-11-29T03:40:28.044Z,51.08
2018-11-29T03:42:57.650Z,52.25
2018-11-29T03:45:27.024Z,46.25
2018-11-29T03:47:56.542Z,53.10
2018-11-29T03:50:26.300Z,44.85
2018-11-29T03:52:55.822Z,47.85
2018-11-29T03:55:25.685Z,40.65
2018-11-29T03:57:55.144Z,48.30
2018-11-29T04:00:24.668Z,47.13
2018-11-29T04:02:54.227Z,47.58
2018-11-29T04:05:24.090Z,51.08
2018-11-29T04:07:53.486Z,48.92
2018-11-29T04:10:23.059Z,50.83
2018-11-29T04:12:52.702Z,54.75
2018-11-29T04:15:22.922Z,49.48
2018-11-29T04:17:52.555Z,45.50
2018-11-29T04:20:22.280Z,46.48
2018-11-29T04:22:51.901Z,57.25
2018-11-29T04:25:21.393Z,49.95
2018-11-29T04:27:51.306Z,41.08
2018-11-29T04:30:21.184Z,48.83
2018-11-29T04:32:50.913Z,44.80
2018-11-29T04:35:20.837Z,46.10
2018-11-29T04:37:51.050Z,46.75
2018-11-29T04:40:20.884Z,53.78
2018-11-29T04:42:51.972Z,46.68
2018-11-29T04:45:21.526Z,45.15
2018-11-29T04:47:51.547Z,54.73
2018-11-29T04:50:21.654Z,54.13
2018-11-29T04:52:51.293Z,50.88
2018-11-29T04:55:21.490Z,46.55
2018-11-29T04:57:51.207Z,46.98
2018-11-29T05:00:21.309Z,49.40
2018-11-29T05:02:51.150Z,46.83
2018-11-29T05:05:21.217Z,60.75
2018-11-29T05:07:50.959Z,51.90
2018-11-29T05:10:20.687Z,50.75
2018-11-29T05:12:50.816Z,52.43
2018-11-29T05:15:21.026Z,55.08
2018-11-29T05:17:50.744Z,49.25
2018-11-29T05:20:20.454Z,56.42
2018-11-29T05:22:49.905Z,54.48
2018-11-29T05:25:19.577Z,57.85
2018-11-29T05:27:49.014Z,55.03
2018-11-29T05:30:18.342Z,54.93
2018-11-29T05:32:47.757Z,57.80
2018-11-29T05:35:17.455Z,57.60
2018-11-29T05:37:46.938Z,52.23
2018-11-29T05:40:16.208Z,56.20
2018-11-29T05:42:45.476Z,52.50
2018-11-29T05:45:15.388Z,48.42
2018-11-29T05:47:44.884Z,46.50
2018-11-29T05:50:14.360Z,51.20
2018-11-29T05:52:43.683Z,45.88
2018-11-29T05:55:13.903Z,49.98
2018-11-29T05:57:43.622Z,49.33
2018-11-29T06:00:15.009Z,49.77
2018-11-29T06:02:45.033Z,48.28
2018-11-29T06:05:16.920Z,53.55
2018-11-29T06:07:46.906Z,50.40
2018-11-29T06:10:19.591Z,51.73
2018-11-29T06:12:49.839Z,51.25
2018-11-29T06:15:19.528Z,46.35
2018-11-29T06:17:49.636Z,54.03
2018-11-29T06:20:20.479Z,47.48
2018-11-29T06:22:50.075Z,55.43
2018-11-29T06:25:19.694Z,49.25
2018-11-29T06:27:49.411Z,51.23
2018-11-29T06:30:21.615Z,51.77
2018-11-29T06:32:53.230Z,57.75
2018-11-29T06:35:23.044Z,53.35
2018-11-29T06:37:52.352Z,53.83
2018-11-29T06:40:21.871Z,50.03
2018-11-29T06:42:51.682Z,56.53
2018-11-29T06:45:22.403Z,51.53
2018-11-29T06:47:53.134Z,52.23
2018-11-29T06:50:23.710Z,54.50
2018-11-29T06:52:53.558Z,54.08
2018-11-29T06:55:24.469Z,52.27
2018-11-29T06:57:54.546Z,54.63
2018-11-29T07:00:27.895Z,54.13
2018-11-29T07:02:57.221Z,54.30
2018-11-29T07:05:26.530Z,51.85
2018-11-29T07:07:56.267Z,55.35
2018-11-29T07:10:30.786Z,52.23
2018-11-29T07:13:00.266Z,53.55
2018-11-29T07:15:29.660Z,46.95
2018-11-29T07:17:59.336Z,54.10
2018-11-29T07:20:28.676Z,55.25
2018-11-29T07:22:58.118Z,61.75
2018-11-29T07:25:27.513Z,60.92
2018-11-29T07:27:56.966Z,54.20
2018-11-29T07:30:26.474Z,51.02
2018-11-29T07:32:55.732Z,57.43
2018-11-29T07:35:25.123Z,62.40
2018-11-29T07:37:54.400Z,57.85
2018-11-29T07:40:23.733Z,59.45
2018-11-29T07:42:54.858Z,57.53
2018-11-29T07:45:24.115Z,56.88
2018-11-29T07:47:53.427Z,64.85
2018-11-29T07:50:24.414Z,56.02
2018-11-29T07:52:53.681Z,67.92
2018-11-29T07:55:23.410Z,49.25
2018-11-29T07:57:53.707Z,50.00
2018-11-29T08:00:23.062Z,62.30
2018-11-29T08:02:52.302Z,64.97
2018-11-29T08:05:21.686Z,55.33
2018-11-29T08:07:50.973Z,64.07
2018-11-29T08:10:21.029Z,54.77
2018-11-29T08:12:50.565Z,60.17
2018-11-29T08:15:21.858Z,56.18
2018-11-29T08:17:51.135Z,57.23
2018-11-29T08:20:22.253Z,53.00
2018-11-29T08:22:51.582Z,54.35
2018-11-29T08:25:20.879Z,57.23
2018-11-29T08:27:50.226Z,58.02
2018-11-29T08:30:19.495Z,56.13
2018-11-29T08:32:48.750Z,52.20
2018-11-29T08:35:19.115Z,57.90
2018-11-29T08:37:48.591Z,49.00
2018-11-29T08:40:20.758Z,54.10
2018-11-29T08:42:50.039Z,53.98
2018-11-29T08:45:19.539Z,50.75
2018-11-29T08:47:48.853Z,52.13
2018-11-29T08:50:18.088Z,48.60
2018-11-29T08:52:47.662Z,52.27
2018-11-29T08:55:19.776Z,52.40
2018-11-29T08:57:50.065Z,44.98
2018-11-29T09:00:21.946Z,52.75
2018-11-29T09:02:51.397Z,53.50
2018-11-29T09:05:21.333Z,50.43
2018-11-29T09:07:50.790Z,51.77
2018-11-29T09:10:23.006Z,49.63
2018-11-29T09:12:52.708Z,47.88
2018-11-29T09:15:22.136Z,46.80
2018-11-29T09:17:51.514Z,55.95
2018-11-29T09:20:22.604Z,49.80
2018-11-29T09:22:51.969Z,49.75
2018-11-29T09:25:23.200Z,42.85
2018-11-29T09:27:52.941Z,50.33
2018-11-29T09:30:23.416Z,65.97
2018-11-29T09:32:54.723Z,44.27
2018-11-29T09:35:24.125Z,49.15
2018-11-29T09:37:53.398Z,40.60
2018-11-29T09:40:22.784Z,46.45
2018-11-29T09:42:52.099Z,41.92
2018-11-29T09:45:23.937Z,42.62
2018-11-29T09:47:54.883Z,44.75
2018-11-29T09:50:25.901Z,38.40
2018-11-29T09:52:55.259Z,39.30
2018-11-29T09:55:24.722Z,45.30
2018-11-29T09:57:54.106Z,42.70
2018-11-29T10:00:28.009Z,47.85
2018-11-29T10:03:14.237Z,37.10
2018-11-29T10:05:45.265Z,44.15
2018-11-29T10:08:18.279Z,44.50
2018-11-29T10:10:47.571Z,44.88
2018-11-29T10:13:16.894Z,50.98
2018-11-29T10:15:46.165Z,48.50
2018-11-29T10:18:15.428Z,49.93
2018-11-29T10:20:44.669Z,41.58
2018-11-29T10:23:14.353Z,40.92
2018-11-29T10:25:43.615Z,44.67
2018-11-29T10:28:16.339Z,37.48
2018-11-29T10:31:00.709Z,48.13
2018-11-29T10:33:30.057Z,46.10
2018-11-29T10:35:59.576Z,42.20
2018-11-29T10:38:28.695Z,40.23
2018-11-29T10:40:58.037Z,47.10
2018-11-29T10:43:27.298Z,46.25
2018-11-29T10:45:56.616Z,42.08
2018-11-29T10:48:26.516Z,46.45
2018-11-29T10:50:55.820Z,40.67
2018-11-29T10:53:25.148Z,50.35
2018-11-29T10:55:54.429Z,51.40
2018-11-29T10:58:23.693Z,39.30
2018-11-29T11:00:58.177Z,40.78
2018-11-29T11:03:27.436Z,44.25
2018-11-29T11:05:56.729Z,44.58
2018-11-29T11:08:26.319Z,48.98
2018-11-29T11:10:55.578Z,42.83
2018-11-29T11:13:24.835Z,39.23
2018-11-29T11:15:54.252Z,39.92
2018-11-29T11:18:23.711Z,40.08
2018-11-29T11:20:53.564Z,46.05
2018-11-29T11:23:22.954Z,37.58
2018-11-29T11:25:52.178Z,42.48
2018-11-29T11:28:21.573Z,40.75
2018-11-29T11:30:51.040Z,43.42
2018-11-29T11:33:20.291Z,40.92
2018-11-29T11:35:49.555Z,42.38
2018-11-29T11:38:18.826Z,45.60
2018-11-29T11:40:48.086Z,43.13
2018-11-29T11:43:17.357Z,42.78
2018-11-29T11:45:46.657Z,43.30
2018-11-29T11:48:16.010Z,47.30
2018-11-29T11:50:45.275Z,39.65
2018-11-29T11:53:15.113Z,41.20
2018-11-29T11:55:44.394Z,45.73
2018-11-29T11:58:13.678Z,38.28
2018-11-29T12:00:42.967Z,40.55
2018-11-29T12:03:14.880Z,38.70
2018-11-29T12:05:44.226Z,37.08
2018-11-29T12:08:13.709Z,38.42
2018-11-29T12:10:44.058Z,34.85
2018-11-29T12:13:13.459Z,33.00
2018-11-29T12:15:42.712Z,32.95
2018-11-29T12:18:13.441Z,39.30
2018-11-29T12:20:43.016Z,45.63
2018-11-29T12:23:12.584Z,43.45
2018-11-29T12:25:41.909Z,42.83
2018-11-29T12:28:11.250Z,39.78
2018-11-29T12:30:46.098Z,36.58
2018-11-29T12:33:15.648Z,37.20
2018-11-29T12:35:44.948Z,38.42
2018-11-29T12:38:14.278Z,41.65
2018-11-29T12:40:43.664Z,46.77
2018-11-29T12:43:12.938Z,33.63
2018-11-29T12:45:42.260Z,38.35
2018-11-29T12:48:11.597Z,35.10
2018-11-29T12:50:40.882Z,30.75
2018-11-29T12:53:10.169Z,45.55
2018-11-29T12:55:42.231Z,36.08
2018-11-29T12:58:11.506Z,37.33
2018-11-29T13:00:40.765Z,34.33
2018-11-29T13:03:11.198Z,29.15
2018-11-29T13:05:40.499Z,35.80
2018-11-29T13:08:10.578Z,35.85
2018-11-29T13:10:39.841Z,37.35
2018-11-29T13:13:09.115Z,31.12
2018-11-29T13:15:38.601Z,31.85
2018-11-29T13:18:09.687Z,34.90
2018-11-29T13:20:38.975Z,31.60
2018-11-29T13:23:08.260Z,26.12
2018-11-29T13:25:37.717Z,29.87
2018-11-29T13:28:08.324Z,31.07
2018-11-29T13:30:38.494Z,42.10
2018-11-29T13:33:09.532Z,35.15
2018-11-29T13:35:38.920Z,25.00
2018-11-29T13:38:12.658Z,29.32
2018-11-29T13:40:44.420Z,28.57
2018-11-29T13:43:13.762Z,28.38
2018-11-29T13:45:43.069Z,22.25
2018-11-29T13:48:13.732Z,25.12
2018-11-29T13:50:43.240Z,28.83
2018-11-29T13:53:12.765Z,28.12
2018-11-29T13:55:42.131Z,31.87
2018-11-29T13:58:11.696Z,25.25
2018-11-29T14:00:41.019Z,29.00
2018-11-29T14:03:13.616Z,28.00
2018-11-29T14:05:42.914Z,32.20
2018-11-29T14:08:12.214Z,34.10
2018-11-29T14:10:43.153Z,28.90
2018-11-29T14:13:13.637Z,24.18
2018-11-29T14:15:42.934Z,26.23
2018-11-29T14:18:12.477Z,25.75
2018-11-29T14:20:41.813Z,24.05
2018-11-29T14:23:11.129Z,23.60
2018-11-29T14:25:47.416Z,33.08
2018-11-29T14:28:16.735Z,27.55
2018-11-29T14:30:46.171Z,22.70
2018-11-29T14:33:15.894Z,28.65
2018-11-29T14:35:45.217Z,27.30
2018-11-29T14:38:14.540Z,24.30
2018-11-29T14:40:43.847Z,19.35
2018-11-29T14:43:13.136Z,29.65
2018-11-29T14:45:42.538Z,24.57
2018-11-29T14:48:11.827Z,24.90
2018-11-29T14:50:44.720Z,23.85
2018-11-29T14:53:14.737Z,27.93
2018-11-29T14:55:44.030Z,27.07
2018-11-29T14:58:19.478Z,22.75
2018-11-29T15:00:43.982Z,27.67
2018-11-29T15:03:17.435Z,26.85
2018-11-29T15:05:47.264Z,21.20
2018-11-29T15:08:16.702Z,23.50
2018-11-29T15:10:45.972Z,29.70
2018-11-29T15:13:15.454Z,20.55
2018-11-29T15:15:45.109Z,21.65
2018-11-29T15:18:14.425Z,30.72
2018-11-29T15:20:46.137Z,21.25
2018-11-29T15:23:17.855Z,24.07
2018-11-29T15:25:47.202Z,21.80
2018-11-29T15:28:16.532Z,27.82
2018-11-29T15:30:45.808Z,25.68
2018-11-29T15:33:15.451Z,22.10
2018-11-29T15:35:44.753Z,21.42
2018-11-29T15:38:14.016Z,20.40
2018-11-29T15:40:43.328Z,22.13
2018-11-29T15:43:12.610Z,24.07
2018-11-29T15:45:42.979Z,22.62
2018-11-29T15:48:12.321Z,20.97
2018-11-29T15:50:41.605Z,25.62
2018-11-29T15:53:10.894Z,21.27
2018-11-29T15:55:40.769Z,29.70
2018-11-29T15:58:10.076Z,18.90
2018-11-29T16:00:39.421Z,17.70
2018-11-29T16:03:10.133Z,14.60
2018-11-29T16:05:41.158Z,21.07
2018-11-29T16:08:08.838Z,20.45
2018-11-29T16:10:38.172Z,26.57
2018-11-29T16:13:08.397Z,19.60
2018-11-29T16:15:38.474Z,25.23
2018-11-29T16:18:08.434Z,20.68
2018-11-29T16:20:39.328Z,22.00
2018-11-29T16:23:10.034Z,19.50
2018-11-29T16:25:39.379Z,26.45
2018-11-29T16:28:09.966Z,14.73
2018-11-29T16:30:45.307Z,23.75
2018-11-29T16:33:23.229Z,19.90
2018-11-29T16:35:52.983Z,19.27
2018-11-29T16:38:22.286Z,18.15
2018-11-29T16:40:51.918Z,17.15
2018-11-29T16:43:21.263Z,21.05
2018-11-29T16:45:50.528Z,19.60
2018-11-29T16:48:19.833Z,17.23
2018-11-29T16:50:49.211Z,22.20
2018-11-29T16:53:18.554Z,14.13
2018-11-29T16:55:48.097Z,18.05
2018-11-29T16:58:24.161Z,17.10
2018-11-29T17:00:53.539Z,16.60
2018-11-29T17:03:22.878Z,28.85
2018-11-29T17:05:52.232Z,12.70
2018-11-29T17:08:21.609Z,19.12
2018-11-29T17:10:51.039Z,13.80
2018-11-29T17:13:20.679Z,15.30
2018-11-29T17:15:50.056Z,17.87
2018-11-29T17:18:19.485Z,20.00
2018-11-29T17:20:48.993Z,23.10
2018-11-29T17:23:18.325Z,28.83
2018-11-29T17:25:47.701Z,40.43
2018-11-29T17:28:17.572Z,13.98
2018-11-29T17:30:46.907Z,14.60
2018-11-29T17:33:16.358Z,14.43
2018-11-29T17:35:45.687Z,15.23
2018-11-29T17:38:15.044Z,13.35
2018-11-29T17:40:44.343Z,20.85
2018-11-29T17:43:14.193Z,14.73
2018-11-29T17:45:43.588Z,15.33
2018-11-29T17:48:13.904Z,29.18
2018-11-29T17:50:44.939Z,14.78
2018-11-29T17:53:14.498Z,21.23
2018-11-29T17:55:43.859Z,15.15
2018-11-29T17:58:15.932Z,14.55
2018-11-29T18:00:48.990Z,18.12
2018-11-29T18:03:21.106Z,18.23
2018-11-29T18:05:50.454Z,18.00
2018-11-29T18:08:19.748Z,13.48
2018-11-29T18:10:52.496Z,13.85
2018-11-29T18:13:25.856Z,19.52
2018-11-29T18:15:55.291Z,16.87
2018-11-29T18:18:24.631Z,16.93
2018-11-29T18:20:54.024Z,16.07
2018-11-29T18:23:23.417Z,15.03
2018-11-29T18:25:52.744Z,20.20
2018-11-29T18:28:22.699Z,19.73
2018-11-29T18:30:52.093Z,13.35
2018-11-29T18:33:21.473Z,13.95
2018-11-29T18:35:50.803Z,15.50
2018-11-29T18:38:20.296Z,14.23
2018-11-29T18:40:49.614Z,20.52
2018-11-29T18:43:18.899Z,16.37
2018-11-29T18:45:48.216Z,21.00
2018-11-29T18:48:17.513Z,25.80
2018-11-29T18:50:46.849Z,18.23
2018-11-29T18:53:16.227Z,12.60
2018-11-29T18:55:45.557Z,15.93
2018-11-29T18:58:14.861Z,26.20
2018-11-29T19:00:44.610Z,24.75
2018-11-29T19:03:14.065Z,20.88
2018-11-29T19:05:43.376Z,16.95
2018-11-29T19:08:12.700Z,17.32
2018-11-29T19:10:41.976Z,16.32
2018-11-29T19:13:14.727Z,16.93
2018-11-29T19:15:44.035Z,25.85
2018-11-29T19:18:13.547Z,17.90
2018-11-29T19:20:45.979Z,16.60
2018-11-29T19:23:15.296Z,16.80
2018-11-29T19:25:44.633Z,19.37
2018-11-29T19:28:13.973Z,15.48
2018-11-29T19:30:43.745Z,19.65
2018-11-29T19:33:21.434Z,16.42
2018-11-29T19:35:52.829Z,16.02
2018-11-29T19:38:22.201Z,20.77
2018-11-29T19:40:51.706Z,20.68
2018-11-29T19:43:21.275Z,19.23
2018-11-29T19:45:50.606Z,20.77
2018-11-29T19:48:20.053Z,18.32
2018-11-29T19:50:49.343Z,19.62
2018-11-29T19:53:23.231Z,22.02
2018-11-29T19:55:57.545Z,19.25
2018-11-29T19:58:27.382Z,21.82
2018-11-29T20:00:56.880Z,18.60
2018-11-29T20:03:26.270Z,18.20
2018-11-29T20:05:55.585Z,20.05
2018-11-29T20:08:24.929Z,24.18
2018-11-29T20:10:54.616Z,15.48
2018-11-29T20:13:23.946Z,21.42
2018-11-29T20:15:55.071Z,14.75
2018-11-29T20:18:24.537Z,19.57
2018-11-29T20:20:53.948Z,16.77
2018-11-29T20:23:23.408Z,16.75
2018-11-29T20:25:53.098Z,13.43
2018-11-29T20:28:23.360Z,17.20
2018-11-29T20:30:53.746Z,17.48
2018-11-29T20:33:23.285Z,17.73
2018-11-29T20:35:52.815Z,14.47
2018-11-29T20:38:22.569Z,12.43
2018-11-29T20:40:52.191Z,15.20
2018-11-29T20:43:22.202Z,15.90
2018-11-29T20:45:54.900Z,15.95
2018-11-29T20:48:26.936Z,16.55
2018-11-29T20:50:58.198Z,11.40
2018-11-29T20:53:37.287Z,17.82
2018-11-29T20:56:11.173Z,11.57
2018-11-29T20:58:41.087Z,16.50
2018-11-29T21:01:11.475Z,11.80
2018-11-29T21:03:41.155Z,15.73
2018-11-29T21:06:13.756Z,15.55
2018-11-29T21:08:43.607Z,18.27
2018-11-29T21:11:13.714Z,13.33
2018-11-29T21:13:43.705Z,13.70
2018-11-29T21:16:15.118Z,11.65
2018-11-29T21:18:45.106Z,14.57
2018-11-29T21:21:14.453Z,12.57
2018-11-29T21:23:44.320Z,14.83
2018-11-29T21:26:13.913Z,16.35
2018-11-29T21:28:43.468Z,14.40
2018-11-29T21:31:13.123Z,20.93
2018-11-29T21:33:42.922Z,12.17
2018-11-29T21:36:13.528Z,10.47
2018-11-29T21:38:43.465Z,13.83
2018-11-29T21:41:13.298Z,19.13
2018-11-29T21:43:43.008Z,12.28
2018-11-29T21:46:12.614Z,12.03
2018-11-29T21:48:42.379Z,10.65
2018-11-29T21:51:12.156Z,13.32
2018-11-29T21:53:41.477Z,12.50
2018-11-29T21:56:11.096Z,12.37
2018-11-29T21:58:40.866Z,13.50
2018-11-29T22:01:11.077Z,13.80
2018-11-29T22:03:40.809Z,11.63
2018-11-29T22:06:10.489Z,12.13
2018-11-29T22:08:40.334Z,23.40
2018-11-29T22:11:10.129Z,18.53
2018-11-29T22:13:39.844Z,17.93
2018-11-29T22:16:09.762Z,17.37
2018-11-29T22:18:39.744Z,13.40
2018-11-29T22:21:09.578Z,20.53
2018-11-29T22:23:40.926Z,16.00
2018-11-29T22:26:16.044Z,16.37
2018-11-29T22:28:45.907Z,22.40
2018-11-29T22:31:16.664Z,13.55
2018-11-29T22:33:46.438Z,13.83
2018-11-29T22:36:16.229Z,19.53
2018-11-29T22:38:45.829Z,11.90
2018-11-29T22:41:15.443Z,16.23
2018-11-29T22:43:44.925Z,25.30
2018-11-29T22:46:14.330Z,27.55
2018-11-29T22:48:43.770Z,19.82
2018-11-29T22:51:13.263Z,14.70
2018-11-29T22:53:42.544Z,15.63
2018-11-29T22:56:11.954Z,14.38
2018-11-29T22:58:41.400Z,23.10
2018-11-29T23:01:16.130Z,12.98
2018-11-29T23:03:45.427Z,15.63
2018-11-29T23:06:14.936Z,17.83
2018-11-29T23:08:44.651Z,17.40
2018-11-29T23:11:14.541Z,18.07
2018-11-29T23:13:44.136Z,11.70
2018-11-29T23:16:13.612Z,12.95
2018-11-29T23:18:43.163Z,19.30
2018-11-29T23:21:12.620Z,18.90
2018-11-29T23:23:42.282Z,15.00
2018-11-29T23:26:11.835Z,13.55
2018-11-29T23:28:41.312Z,19.27
2018-11-29T23:31:10.953Z,24.23
2018-11-29T23:33:40.942Z,19.25
2018-11-29T23:36:10.443Z,13.90
2018-11-29T23:38:40.034Z,14.80
2018-11-29T23:41:09.932Z,14.70
2018-11-29T23:43:39.218Z,13.10
2018-11-29T23:46:08.854Z,13.45
2018-11-29T23:48:38.400Z,12.50
2018-11-29T23:51:07.983Z,15.28
2018-11-29T23:53:37.545Z,18.57
2018-11-29T23:56:07.771Z,19.87
2018-11-29T23:58:37.163Z,19.93
